sensor_id;sensor_type;location;lat;lon;timestamp;temperature;humidity
19044;DHT22;9654;52.302;8.120;2023-05-07T00:00:34;11.70;99.90
19044;DHT22;9654;52.302;8.120;2023-05-07T00:03:01;11.70;99.90
19044;DHT22;9654;52.302;8.120;2023-05-07T00:05:28;11.60;99.90
19044;DHT22;9654;52.302;8.120;2023-05-07T00:07:55;11.60;99.90
19044;DHT22;9654;52.302;8.120;2023-05-07T00:10:21;11.60;99.90
19044;DHT22;9654;52.302;8.120;2023-05-07T00:12:50;11.50;99.90
19044;DHT22;9654;52.302;8.120;2023-05-07T00:15:16;11.50;99.90
19044;DHT22;9654;52.302;8.120;2023-05-07T00:17:43;11.50;99.90
19044;DHT22;9654;52.302;8.120;2023-05-07T00:20:11;11.50;99.90
19044;DHT22;9654;52.302;8.120;2023-05-07T00:22:37;11.50;99.90
19044;DHT22;9654;52.302;8.120;2023-05-07T00:25:05;11.50;99.90
19044;DHT22;9654;52.302;8.120;2023-05-07T00:27:32;11.40;99.90
19044;DHT22;9654;52.302;8.120;2023-05-07T00:30:00;11.50;99.90
19044;DHT22;9654;52.302;8.120;2023-05-07T00:32:27;11.50;99.90
19044;DHT22;9654;52.302;8.120;2023-05-07T00:34:54;11.50;99.90
19044;DHT22;9654;52.302;8.120;2023-05-07T00:37:21;11.40;99.90
19044;DHT22;9654;52.302;8.120;2023-05-07T00:39:47;11.40;99.90
19044;DHT22;9654;52.302;8.120;2023-05-07T00:42:14;11.50;99.90
19044;DHT22;9654;52.302;8.120;2023-05-07T00:44:41;11.40;99.90
19044;DHT22;9654;52.302;8.120;2023-05-07T00:47:10;11.40;99.90
19044;DHT22;9654;52.302;8.120;2023-05-07T00:49:39;11.30;99.90
19044;DHT22;9654;52.302;8.120;2023-05-07T00:52:07;11.30;99.90
19044;DHT22;9654;52.302;8.120;2023-05-07T00:54:36;11.30;99.90
19044;DHT22;9654;52.302;8.120;2023-05-07T00:57:03;11.20;99.90
19044;DHT22;9654;52.302;8.120;2023-05-07T00:59:30;11.20;99.90
19044;DHT22;9654;52.302;8.120;2023-05-07T01:01:58;11.30;99.90
19044;DHT22;9654;52.302;8.120;2023-05-07T01:04:26;11.30;99.90
19044;DHT22;9654;52.302;8.120;2023-05-07T01:06:55;11.30;99.90
19044;DHT22;9654;52.302;8.120;2023-05-07T01:09:23;11.20;99.90
19044;DHT22;9654;52.302;8.120;2023-05-07T01:11:51;11.20;99.90
19044;DHT22;9654;52.302;8.120;2023-05-07T01:14:18;11.20;99.90
19044;DHT22;9654;52.302;8.120;2023-05-07T01:16:46;11.10;99.90
19044;DHT22;9654;52.302;8.120;2023-05-07T01:19:12;11.10;99.90
19044;DHT22;9654;52.302;8.120;2023-05-07T01:21:45;11.10;99.90
19044;DHT22;9654;52.302;8.120;2023-05-07T01:24:14;11.10;99.90
19044;DHT22;9654;52.302;8.120;2023-05-07T01:26:42;11.10;99.90
19044;DHT22;9654;52.302;8.120;2023-05-07T01:29:09;11.10;99.90
19044;DHT22;9654;52.302;8.120;2023-05-07T01:31:36;11.10;99.90
19044;DHT22;9654;52.302;8.120;2023-05-07T01:34:03;11.00;99.90
19044;DHT22;9654;52.302;8.120;2023-05-07T01:36:32;11.00;99.90
19044;DHT22;9654;52.302;8.120;2023-05-07T01:39:00;11.00;99.90
19044;DHT22;9654;52.302;8.120;2023-05-07T01:41:28;11.00;99.90
19044;DHT22;9654;52.302;8.120;2023-05-07T01:43:56;11.00;99.90
19044;DHT22;9654;52.302;8.120;2023-05-07T01:46:24;11.00;99.90
19044;DHT22;9654;52.302;8.120;2023-05-07T01:48:52;11.00;99.90
19044;DHT22;9654;52.302;8.120;2023-05-07T01:53:54;10.90;99.90
19044;DHT22;9654;52.302;8.120;2023-05-07T01:56:38;10.90;99.90
19044;DHT22;9654;52.302;8.120;2023-05-07T01:59:05;10.90;99.90
19044;DHT22;9654;52.302;8.120;2023-05-07T02:01:32;10.90;99.90
19044;DHT22;9654;52.302;8.120;2023-05-07T02:03:58;10.90;99.90
19044;DHT22;9654;52.302;8.120;2023-05-07T02:06:25;10.90;99.90
19044;DHT22;9654;52.302;8.120;2023-05-07T02:08:52;10.90;99.90
19044;DHT22;9654;52.302;8.120;2023-05-07T02:11:19;10.90;99.90
19044;DHT22;9654;52.302;8.120;2023-05-07T02:13:47;10.90;99.90
19044;DHT22;9654;52.302;8.120;2023-05-07T02:16:14;10.90;99.90
19044;DHT22;9654;52.302;8.120;2023-05-07T02:18:40;10.90;99.90
19044;DHT22;9654;52.302;8.120;2023-05-07T02:21:07;10.90;99.90
19044;DHT22;9654;52.302;8.120;2023-05-07T02:23:34;10.90;99.90
19044;DHT22;9654;52.302;8.120;2023-05-07T02:26:01;10.90;99.90
19044;DHT22;9654;52.302;8.120;2023-05-07T02:28:28;10.90;99.90
19044;DHT22;9654;52.302;8.120;2023-05-07T02:30:56;10.90;99.90
19044;DHT22;9654;52.302;8.120;2023-05-07T02:33:24;10.80;99.90
19044;DHT22;9654;52.302;8.120;2023-05-07T02:35:51;10.80;99.90
19044;DHT22;9654;52.302;8.120;2023-05-07T02:38:18;10.80;99.90
19044;DHT22;9654;52.302;8.120;2023-05-07T02:40:45;10.80;99.90
19044;DHT22;9654;52.302;8.120;2023-05-07T02:43:12;10.80;99.90
19044;DHT22;9654;52.302;8.120;2023-05-07T02:45:39;10.70;99.90
19044;DHT22;9654;52.302;8.120;2023-05-07T02:48:07;10.70;99.90
19044;DHT22;9654;52.302;8.120;2023-05-07T02:50:34;10.70;99.90
19044;DHT22;9654;52.302;8.120;2023-05-07T02:53:00;10.70;99.90
19044;DHT22;9654;52.302;8.120;2023-05-07T02:55:27;10.70;99.90
19044;DHT22;9654;52.302;8.120;2023-05-07T02:57:54;10.70;99.90
19044;DHT22;9654;52.302;8.120;2023-05-07T03:00:22;10.60;99.90
19044;DHT22;9654;52.302;8.120;2023-05-07T03:02:49;10.70;99.90
19044;DHT22;9654;52.302;8.120;2023-05-07T03:05:17;10.60;99.90
19044;DHT22;9654;52.302;8.120;2023-05-07T03:07:43;10.70;99.90
19044;DHT22;9654;52.302;8.120;2023-05-07T03:10:11;10.60;99.90
19044;DHT22;9654;52.302;8.120;2023-05-07T03:12:38;10.60;99.90
19044;DHT22;9654;52.302;8.120;2023-05-07T03:15:05;10.60;99.90
19044;DHT22;9654;52.302;8.120;2023-05-07T03:17:33;10.60;99.90
19044;DHT22;9654;52.302;8.120;2023-05-07T03:20:00;10.60;99.90
19044;DHT22;9654;52.302;8.120;2023-05-07T03:22:28;10.50;99.90
19044;DHT22;9654;52.302;8.120;2023-05-07T03:24:55;10.50;99.90
19044;DHT22;9654;52.302;8.120;2023-05-07T03:27:22;10.50;99.90
19044;DHT22;9654;52.302;8.120;2023-05-07T03:29:48;10.40;99.90
19044;DHT22;9654;52.302;8.120;2023-05-07T03:32:15;10.40;99.90
19044;DHT22;9654;52.302;8.120;2023-05-07T03:34:42;10.40;99.90
19044;DHT22;9654;52.302;8.120;2023-05-07T03:37:09;10.40;99.90
19044;DHT22;9654;52.302;8.120;2023-05-07T03:39:37;10.30;99.90
19044;DHT22;9654;52.302;8.120;2023-05-07T03:42:04;10.30;99.90
19044;DHT22;9654;52.302;8.120;2023-05-07T03:44:30;10.20;99.90
19044;DHT22;9654;52.302;8.120;2023-05-07T03:46:57;10.20;99.90
19044;DHT22;9654;52.302;8.120;2023-05-07T03:49:24;10.10;99.90
19044;DHT22;9654;52.302;8.120;2023-05-07T03:51:51;10.20;99.90
19044;DHT22;9654;52.302;8.120;2023-05-07T03:54:18;10.10;99.90
19044;DHT22;9654;52.302;8.120;2023-05-07T03:56:46;10.20;99.90
19044;DHT22;9654;52.302;8.120;2023-05-07T03:59:13;10.10;99.90
19044;DHT22;9654;52.302;8.120;2023-05-07T04:01:40;10.10;99.90
19044;DHT22;9654;52.302;8.120;2023-05-07T04:04:06;10.10;99.90
19044;DHT22;9654;52.302;8.120;2023-05-07T04:06:33;10.10;99.90
19044;DHT22;9654;52.302;8.120;2023-05-07T04:09:00;10.10;99.90
19044;DHT22;9654;52.302;8.120;2023-05-07T04:11:27;10.10;99.90
19044;DHT22;9654;52.302;8.120;2023-05-07T04:13:55;10.10;99.90
19044;DHT22;9654;52.302;8.120;2023-05-07T04:16:22;10.10;99.90
19044;DHT22;9654;52.302;8.120;2023-05-07T04:18:49;10.10;99.90
19044;DHT22;9654;52.302;8.120;2023-05-07T04:21:16;10.10;99.90
19044;DHT22;9654;52.302;8.120;2023-05-07T04:23:44;10.00;99.90
19044;DHT22;9654;52.302;8.120;2023-05-07T04:26:10;10.00;99.90
19044;DHT22;9654;52.302;8.120;2023-05-07T04:28:38;10.00;99.90
19044;DHT22;9654;52.302;8.120;2023-05-07T04:31:07;10.00;99.90
19044;DHT22;9654;52.302;8.120;2023-05-07T04:33:34;10.10;99.90
19044;DHT22;9654;52.302;8.120;2023-05-07T04:36:02;10.10;99.90
19044;DHT22;9654;52.302;8.120;2023-05-07T04:38:29;10.10;99.90
19044;DHT22;9654;52.302;8.120;2023-05-07T04:40:56;10.10;99.90
19044;DHT22;9654;52.302;8.120;2023-05-07T04:43:23;10.20;99.90
19044;DHT22;9654;52.302;8.120;2023-05-07T04:45:51;10.20;99.90
19044;DHT22;9654;52.302;8.120;2023-05-07T04:48:19;10.20;99.90
19044;DHT22;9654;52.302;8.120;2023-05-07T04:50:47;10.20;99.90
19044;DHT22;9654;52.302;8.120;2023-05-07T04:53:14;10.20;99.90
19044;DHT22;9654;52.302;8.120;2023-05-07T04:55:41;10.20;99.90
19044;DHT22;9654;52.302;8.120;2023-05-07T04:58:08;10.20;99.90
19044;DHT22;9654;52.302;8.120;2023-05-07T05:00:36;10.30;99.90
19044;DHT22;9654;52.302;8.120;2023-05-07T05:03:02;10.30;99.90
19044;DHT22;9654;52.302;8.120;2023-05-07T05:05:31;10.30;99.90
19044;DHT22;9654;52.302;8.120;2023-05-07T05:07:58;10.30;99.90
19044;DHT22;9654;52.302;8.120;2023-05-07T05:10:25;10.40;99.90
19044;DHT22;9654;52.302;8.120;2023-05-07T05:12:52;10.40;99.90
19044;DHT22;9654;52.302;8.120;2023-05-07T05:15:19;10.40;99.90
19044;DHT22;9654;52.302;8.120;2023-05-07T05:17:45;10.40;99.90
19044;DHT22;9654;52.302;8.120;2023-05-07T05:20:12;10.50;99.90
19044;DHT22;9654;52.302;8.120;2023-05-07T05:22:41;10.50;99.90
19044;DHT22;9654;52.302;8.120;2023-05-07T05:25:08;10.50;99.90
19044;DHT22;9654;52.302;8.120;2023-05-07T05:27:35;10.60;99.90
19044;DHT22;9654;52.302;8.120;2023-05-07T05:30:02;10.60;99.90
19044;DHT22;9654;52.302;8.120;2023-05-07T05:32:29;10.70;99.90
19044;DHT22;9654;52.302;8.120;2023-05-07T05:34:56;10.70;99.90
19044;DHT22;9654;52.302;8.120;2023-05-07T05:37:23;10.80;99.90
19044;DHT22;9654;52.302;8.120;2023-05-07T05:39:51;10.90;99.90
19044;DHT22;9654;52.302;8.120;2023-05-07T05:42:20;10.90;99.90
19044;DHT22;9654;52.302;8.120;2023-05-07T05:44:46;11.00;99.90
19044;DHT22;9654;52.302;8.120;2023-05-07T05:47:13;11.00;99.90
19044;DHT22;9654;52.302;8.120;2023-05-07T05:49:40;11.10;99.90
19044;DHT22;9654;52.302;8.120;2023-05-07T05:52:08;11.10;99.90
19044;DHT22;9654;52.302;8.120;2023-05-07T05:54:35;11.10;99.90
19044;DHT22;9654;52.302;8.120;2023-05-07T05:57:04;11.10;99.90
19044;DHT22;9654;52.302;8.120;2023-05-07T05:59:31;11.10;99.90
19044;DHT22;9654;52.302;8.120;2023-05-07T06:01:58;11.20;99.90
19044;DHT22;9654;52.302;8.120;2023-05-07T06:04:25;11.30;99.90
19044;DHT22;9654;52.302;8.120;2023-05-07T06:06:51;11.30;99.90
19044;DHT22;9654;52.302;8.120;2023-05-07T06:09:18;11.30;99.90
19044;DHT22;9654;52.302;8.120;2023-05-07T06:11:45;11.30;99.90
19044;DHT22;9654;52.302;8.120;2023-05-07T06:14:13;11.40;99.90
19044;DHT22;9654;52.302;8.120;2023-05-07T06:16:40;11.40;99.90
19044;DHT22;9654;52.302;8.120;2023-05-07T06:19:07;11.50;99.90
19044;DHT22;9654;52.302;8.120;2023-05-07T06:21:34;11.50;99.90
19044;DHT22;9654;52.302;8.120;2023-05-07T06:24:01;11.60;99.90
19044;DHT22;9654;52.302;8.120;2023-05-07T06:26:27;11.70;99.90
19044;DHT22;9654;52.302;8.120;2023-05-07T06:28:54;11.70;99.90
19044;DHT22;9654;52.302;8.120;2023-05-07T06:31:22;11.70;99.90
19044;DHT22;9654;52.302;8.120;2023-05-07T06:33:49;11.70;99.90
19044;DHT22;9654;52.302;8.120;2023-05-07T06:36:16;11.80;99.90
19044;DHT22;9654;52.302;8.120;2023-05-07T06:38:43;11.80;99.90
19044;DHT22;9654;52.302;8.120;2023-05-07T06:41:10;11.90;99.90
19044;DHT22;9654;52.302;8.120;2023-05-07T06:43:36;12.00;99.90
19044;DHT22;9654;52.302;8.120;2023-05-07T06:46:03;12.00;99.90
19044;DHT22;9654;52.302;8.120;2023-05-07T06:48:32;12.00;99.90
19044;DHT22;9654;52.302;8.120;2023-05-07T06:50:58;12.10;99.90
19044;DHT22;9654;52.302;8.120;2023-05-07T06:53:25;12.00;99.90
19044;DHT22;9654;52.302;8.120;2023-05-07T06:55:53;12.10;99.90
19044;DHT22;9654;52.302;8.120;2023-05-07T06:58:20;12.20;99.90
19044;DHT22;9654;52.302;8.120;2023-05-07T07:00:47;12.20;99.90
19044;DHT22;9654;52.302;8.120;2023-05-07T07:03:14;12.30;99.90
19044;DHT22;9654;52.302;8.120;2023-05-07T07:05:42;12.40;99.90
19044;DHT22;9654;52.302;8.120;2023-05-07T07:08:09;12.50;99.90
19044;DHT22;9654;52.302;8.120;2023-05-07T07:10:36;12.60;99.90
19044;DHT22;9654;52.302;8.120;2023-05-07T07:13:03;12.60;99.90
19044;DHT22;9654;52.302;8.120;2023-05-07T07:15:30;12.70;99.90
19044;DHT22;9654;52.302;8.120;2023-05-07T07:17:57;12.80;99.90
19044;DHT22;9654;52.302;8.120;2023-05-07T07:20:23;12.90;99.90
19044;DHT22;9654;52.302;8.120;2023-05-07T07:22:52;12.90;99.90
19044;DHT22;9654;52.302;8.120;2023-05-07T07:25:18;13.00;99.90
19044;DHT22;9654;52.302;8.120;2023-05-07T07:27:45;13.10;99.90
19044;DHT22;9654;52.302;8.120;2023-05-07T07:30:12;13.40;99.90
19044;DHT22;9654;52.302;8.120;2023-05-07T07:32:39;13.50;99.90
19044;DHT22;9654;52.302;8.120;2023-05-07T07:35:07;13.70;99.90
19044;DHT22;9654;52.302;8.120;2023-05-07T07:37:34;13.70;99.90
19044;DHT22;9654;52.302;8.120;2023-05-07T07:40:02;13.80;99.90
19044;DHT22;9654;52.302;8.120;2023-05-07T07:42:29;13.70;99.90
19044;DHT22;9654;52.302;8.120;2023-05-07T07:44:56;13.80;99.90
19044;DHT22;9654;52.302;8.120;2023-05-07T07:47:23;13.90;99.90
19044;DHT22;9654;52.302;8.120;2023-05-07T07:49:49;13.80;99.90
19044;DHT22;9654;52.302;8.120;2023-05-07T07:52:16;13.80;99.90
19044;DHT22;9654;52.302;8.120;2023-05-07T07:54:44;13.80;99.90
19044;DHT22;9654;52.302;8.120;2023-05-07T07:57:12;13.80;99.90
19044;DHT22;9654;52.302;8.120;2023-05-07T07:59:38;13.70;99.90
19044;DHT22;9654;52.302;8.120;2023-05-07T08:02:07;13.70;99.90
19044;DHT22;9654;52.302;8.120;2023-05-07T08:04:34;13.80;99.90
19044;DHT22;9654;52.302;8.120;2023-05-07T08:07:02;13.80;99.90
19044;DHT22;9654;52.302;8.120;2023-05-07T08:09:29;13.80;99.90
19044;DHT22;9654;52.302;8.120;2023-05-07T08:11:56;13.90;99.90
19044;DHT22;9654;52.302;8.120;2023-05-07T08:14:24;13.90;99.90
19044;DHT22;9654;52.302;8.120;2023-05-07T08:16:51;13.90;99.90
19044;DHT22;9654;52.302;8.120;2023-05-07T08:19:17;14.00;99.90
19044;DHT22;9654;52.302;8.120;2023-05-07T08:21:45;14.00;99.90
19044;DHT22;9654;52.302;8.120;2023-05-07T08:24:13;14.00;99.90
19044;DHT22;9654;52.302;8.120;2023-05-07T08:26:40;14.10;99.90
19044;DHT22;9654;52.302;8.120;2023-05-07T08:29:07;14.20;99.90
19044;DHT22;9654;52.302;8.120;2023-05-07T08:31:35;14.20;99.90
19044;DHT22;9654;52.302;8.120;2023-05-07T08:34:03;14.30;99.90
19044;DHT22;9654;52.302;8.120;2023-05-07T08:36:30;14.30;99.90
19044;DHT22;9654;52.302;8.120;2023-05-07T08:38:57;14.30;99.90
19044;DHT22;9654;52.302;8.120;2023-05-07T08:41:24;14.40;99.90
19044;DHT22;9654;52.302;8.120;2023-05-07T08:43:51;14.50;99.90
19044;DHT22;9654;52.302;8.120;2023-05-07T08:46:20;14.70;99.90
19044;DHT22;9654;52.302;8.120;2023-05-07T08:48:49;14.90;99.90
19044;DHT22;9654;52.302;8.120;2023-05-07T08:51:18;15.20;99.90
19044;DHT22;9654;52.302;8.120;2023-05-07T08:53:46;15.30;99.90
19044;DHT22;9654;52.302;8.120;2023-05-07T08:56:15;15.30;99.90
19044;DHT22;9654;52.302;8.120;2023-05-07T08:58:42;15.20;99.90
19044;DHT22;9654;52.302;8.120;2023-05-07T09:01:11;15.10;99.90
19044;DHT22;9654;52.302;8.120;2023-05-07T09:03:39;15.10;99.90
19044;DHT22;9654;52.302;8.120;2023-05-07T09:06:08;15.20;99.90
19044;DHT22;9654;52.302;8.120;2023-05-07T09:08:35;15.30;99.90
19044;DHT22;9654;52.302;8.120;2023-05-07T09:11:03;15.40;99.90
19044;DHT22;9654;52.302;8.120;2023-05-07T09:13:30;15.60;99.90
19044;DHT22;9654;52.302;8.120;2023-05-07T09:15:57;15.80;99.90
19044;DHT22;9654;52.302;8.120;2023-05-07T09:18:24;16.00;99.90
19044;DHT22;9654;52.302;8.120;2023-05-07T09:20:51;16.10;99.90
19044;DHT22;9654;52.302;8.120;2023-05-07T09:23:20;16.40;99.90
19044;DHT22;9654;52.302;8.120;2023-05-07T09:25:47;16.60;99.90
19044;DHT22;9654;52.302;8.120;2023-05-07T09:28:15;16.70;99.90
19044;DHT22;9654;52.302;8.120;2023-05-07T09:30:42;17.00;99.90
19044;DHT22;9654;52.302;8.120;2023-05-07T09:33:08;17.10;99.90
19044;DHT22;9654;52.302;8.120;2023-05-07T09:35:35;16.90;99.90
19044;DHT22;9654;52.302;8.120;2023-05-07T09:38:04;16.90;99.90
19044;DHT22;9654;52.302;8.120;2023-05-07T09:40:32;16.90;99.90
19044;DHT22;9654;52.302;8.120;2023-05-07T09:43:09;16.90;99.90
19044;DHT22;9654;52.302;8.120;2023-05-07T09:45:36;16.80;99.90
19044;DHT22;9654;52.302;8.120;2023-05-07T09:48:05;16.90;99.90
19044;DHT22;9654;52.302;8.120;2023-05-07T09:50:35;16.90;99.90
19044;DHT22;9654;52.302;8.120;2023-05-07T09:53:03;16.90;99.90
19044;DHT22;9654;52.302;8.120;2023-05-07T09:55:32;17.00;99.90
19044;DHT22;9654;52.302;8.120;2023-05-07T09:57:58;16.70;99.90
19044;DHT22;9654;52.302;8.120;2023-05-07T10:00:28;16.50;99.90
19044;DHT22;9654;52.302;8.120;2023-05-07T10:02:57;16.60;99.90
19044;DHT22;9654;52.302;8.120;2023-05-07T10:05:24;16.70;99.90
19044;DHT22;9654;52.302;8.120;2023-05-07T10:07:52;16.90;99.90
19044;DHT22;9654;52.302;8.120;2023-05-07T10:10:20;17.10;99.90
19044;DHT22;9654;52.302;8.120;2023-05-07T10:12:49;17.30;99.90
19044;DHT22;9654;52.302;8.120;2023-05-07T10:15:16;17.40;99.90
19044;DHT22;9654;52.302;8.120;2023-05-07T10:17:44;17.60;99.90
19044;DHT22;9654;52.302;8.120;2023-05-07T10:20:11;17.80;99.90
19044;DHT22;9654;52.302;8.120;2023-05-07T10:22:41;17.70;99.90
19044;DHT22;9654;52.302;8.120;2023-05-07T10:25:14;17.60;99.90
19044;DHT22;9654;52.302;8.120;2023-05-07T10:27:43;17.60;99.90
19044;DHT22;9654;52.302;8.120;2023-05-07T10:30:20;17.70;99.90
19044;DHT22;9654;52.302;8.120;2023-05-07T10:32:51;17.70;99.90
19044;DHT22;9654;52.302;8.120;2023-05-07T10:35:22;17.80;99.90
19044;DHT22;9654;52.302;8.120;2023-05-07T10:37:50;17.80;99.90
19044;DHT22;9654;52.302;8.120;2023-05-07T10:40:17;18.00;99.90
19044;DHT22;9654;52.302;8.120;2023-05-07T10:42:55;18.10;99.90
19044;DHT22;9654;52.302;8.120;2023-05-07T10:45:25;18.20;99.90
19044;DHT22;9654;52.302;8.120;2023-05-07T10:48:08;18.40;99.90
19044;DHT22;9654;52.302;8.120;2023-05-07T10:50:35;18.60;99.90
19044;DHT22;9654;52.302;8.120;2023-05-07T10:53:22;18.70;99.90
19044;DHT22;9654;52.302;8.120;2023-05-07T10:56:23;18.70;99.90
19044;DHT22;9654;52.302;8.120;2023-05-07T10:58:40;18.70;99.90
19044;DHT22;9654;52.302;8.120;2023-05-07T11:01:08;18.80;99.90
19044;DHT22;9654;52.302;8.120;2023-05-07T11:04:15;19.10;99.90
19044;DHT22;9654;52.302;8.120;2023-05-07T11:07:24;19.00;99.90
19044;DHT22;9654;52.302;8.120;2023-05-07T11:09:59;19.00;99.90
19044;DHT22;9654;52.302;8.120;2023-05-07T11:12:52;19.10;99.90
19044;DHT22;9654;52.302;8.120;2023-05-07T11:15:39;19.00;99.90
19044;DHT22;9654;52.302;8.120;2023-05-07T11:18:10;19.00;99.90
19044;DHT22;9654;52.302;8.120;2023-05-07T11:23:55;18.80;99.90
19044;DHT22;9654;52.302;8.120;2023-05-07T11:26:24;18.80;99.90
19044;DHT22;9654;52.302;8.120;2023-05-07T11:28:52;18.80;99.90
19044;DHT22;9654;52.302;8.120;2023-05-07T11:31:25;18.70;99.90
19044;DHT22;9654;52.302;8.120;2023-05-07T11:33:54;18.40;99.90
19044;DHT22;9654;52.302;8.120;2023-05-07T11:36:23;18.70;99.90
19044;DHT22;9654;52.302;8.120;2023-05-07T11:38:50;18.90;99.90
19044;DHT22;9654;52.302;8.120;2023-05-07T11:41:17;19.00;99.90
19044;DHT22;9654;52.302;8.120;2023-05-07T11:43:59;19.10;99.90
19044;DHT22;9654;52.302;8.120;2023-05-07T11:46:27;19.10;99.90
19044;DHT22;9654;52.302;8.120;2023-05-07T11:48:56;19.40;99.90
19044;DHT22;9654;52.302;8.120;2023-05-07T11:51:24;19.60;99.90
19044;DHT22;9654;52.302;8.120;2023-05-07T11:53:52;19.60;99.90
19044;DHT22;9654;52.302;8.120;2023-05-07T11:56:19;19.60;99.90
19044;DHT22;9654;52.302;8.120;2023-05-07T11:58:47;19.80;99.90
19044;DHT22;9654;52.302;8.120;2023-05-07T12:01:15;19.60;99.90
19044;DHT22;9654;52.302;8.120;2023-05-07T12:03:45;19.50;99.90
19044;DHT22;9654;52.302;8.120;2023-05-07T12:06:15;19.60;99.90
19044;DHT22;9654;52.302;8.120;2023-05-07T12:08:43;19.70;99.90
19044;DHT22;9654;52.302;8.120;2023-05-07T12:11:15;19.70;99.90
19044;DHT22;9654;52.302;8.120;2023-05-07T12:13:43;19.60;99.90
19044;DHT22;9654;52.302;8.120;2023-05-07T12:16:11;19.40;99.90
19044;DHT22;9654;52.302;8.120;2023-05-07T12:18:38;19.20;99.90
19044;DHT22;9654;52.302;8.120;2023-05-07T12:21:05;19.10;99.90
19044;DHT22;9654;52.302;8.120;2023-05-07T12:23:35;19.30;99.90
19044;DHT22;9654;52.302;8.120;2023-05-07T12:26:03;19.00;99.90
19044;DHT22;9654;52.302;8.120;2023-05-07T12:28:30;19.10;99.90
19044;DHT22;9654;52.302;8.120;2023-05-07T12:30:57;19.30;99.90
19044;DHT22;9654;52.302;8.120;2023-05-07T12:33:25;19.40;99.90
19044;DHT22;9654;52.302;8.120;2023-05-07T12:35:55;19.30;99.90
19044;DHT22;9654;52.302;8.120;2023-05-07T12:38:22;19.20;99.90
19044;DHT22;9654;52.302;8.120;2023-05-07T12:40:54;19.10;99.90
19044;DHT22;9654;52.302;8.120;2023-05-07T12:43:23;19.00;99.90
19044;DHT22;9654;52.302;8.120;2023-05-07T12:45:51;18.90;99.90
19044;DHT22;9654;52.302;8.120;2023-05-07T12:48:20;18.80;99.90
19044;DHT22;9654;52.302;8.120;2023-05-07T12:50:49;18.70;99.90
19044;DHT22;9654;52.302;8.120;2023-05-07T12:53:16;18.90;99.90
19044;DHT22;9654;52.302;8.120;2023-05-07T12:55:44;19.00;99.90
19044;DHT22;9654;52.302;8.120;2023-05-07T12:58:16;18.90;99.90
19044;DHT22;9654;52.302;8.120;2023-05-07T13:00:44;19.00;99.90
19044;DHT22;9654;52.302;8.120;2023-05-07T13:03:11;19.00;99.90
19044;DHT22;9654;52.302;8.120;2023-05-07T13:05:38;19.00;99.90
19044;DHT22;9654;52.302;8.120;2023-05-07T13:08:05;18.90;99.90
19044;DHT22;9654;52.302;8.120;2023-05-07T13:10:33;19.00;99.90
19044;DHT22;9654;52.302;8.120;2023-05-07T13:13:00;19.00;99.90
19044;DHT22;9654;52.302;8.120;2023-05-07T13:15:28;19.20;99.90
19044;DHT22;9654;52.302;8.120;2023-05-07T13:17:55;19.40;99.90
19044;DHT22;9654;52.302;8.120;2023-05-07T13:20:22;19.50;99.90
19044;DHT22;9654;52.302;8.120;2023-05-07T13:22:49;19.40;99.90
19044;DHT22;9654;52.302;8.120;2023-05-07T13:25:15;19.60;99.90
19044;DHT22;9654;52.302;8.120;2023-05-07T13:27:42;19.90;99.90
19044;DHT22;9654;52.302;8.120;2023-05-07T13:30:09;19.70;99.90
19044;DHT22;9654;52.302;8.120;2023-05-07T13:32:37;20.00;99.90
19044;DHT22;9654;52.302;8.120;2023-05-07T13:35:05;19.80;99.90
19044;DHT22;9654;52.302;8.120;2023-05-07T13:37:32;19.60;99.90
19044;DHT22;9654;52.302;8.120;2023-05-07T13:39:58;19.70;99.90
19044;DHT22;9654;52.302;8.120;2023-05-07T13:42:25;19.90;99.90
19044;DHT22;9654;52.302;8.120;2023-05-07T13:44:52;20.10;99.90
19044;DHT22;9654;52.302;8.120;2023-05-07T13:47:19;20.40;99.90
19044;DHT22;9654;52.302;8.120;2023-05-07T13:49:47;20.40;99.90
19044;DHT22;9654;52.302;8.120;2023-05-07T13:52:15;20.60;99.90
19044;DHT22;9654;52.302;8.120;2023-05-07T13:54:42;20.70;99.90
19044;DHT22;9654;52.302;8.120;2023-05-07T13:57:08;20.70;99.90
19044;DHT22;9654;52.302;8.120;2023-05-07T13:59:35;20.60;99.90
19044;DHT22;9654;52.302;8.120;2023-05-07T14:02:02;20.50;99.90
19044;DHT22;9654;52.302;8.120;2023-05-07T14:04:31;20.50;99.90
19044;DHT22;9654;52.302;8.120;2023-05-07T14:06:59;20.30;99.90
19044;DHT22;9654;52.302;8.120;2023-05-07T14:09:25;20.20;99.90
19044;DHT22;9654;52.302;8.120;2023-05-07T14:11:52;20.20;99.90
19044;DHT22;9654;52.302;8.120;2023-05-07T14:14:19;20.30;99.90
19044;DHT22;9654;52.302;8.120;2023-05-07T14:16:46;20.40;99.90
19044;DHT22;9654;52.302;8.120;2023-05-07T14:19:13;20.60;99.90
19044;DHT22;9654;52.302;8.120;2023-05-07T14:21:39;20.70;99.90
19044;DHT22;9654;52.302;8.120;2023-05-07T14:24:08;20.30;99.90
19044;DHT22;9654;52.302;8.120;2023-05-07T14:26:35;20.30;99.90
19044;DHT22;9654;52.302;8.120;2023-05-07T14:29:02;20.50;99.90
19044;DHT22;9654;52.302;8.120;2023-05-07T14:31:28;20.60;99.90
19044;DHT22;9654;52.302;8.120;2023-05-07T14:33:55;20.70;99.90
19044;DHT22;9654;52.302;8.120;2023-05-07T14:36:23;21.00;99.90
19044;DHT22;9654;52.302;8.120;2023-05-07T14:38:51;21.00;99.90
19044;DHT22;9654;52.302;8.120;2023-05-07T14:41:21;20.90;99.90
19044;DHT22;9654;52.302;8.120;2023-05-07T14:43:48;20.90;99.90
19044;DHT22;9654;52.302;8.120;2023-05-07T14:46:16;21.20;99.90
19044;DHT22;9654;52.302;8.120;2023-05-07T14:48:43;21.20;99.90
19044;DHT22;9654;52.302;8.120;2023-05-07T14:51:11;21.50;99.90
19044;DHT22;9654;52.302;8.120;2023-05-07T14:53:38;21.20;99.90
19044;DHT22;9654;52.302;8.120;2023-05-07T14:56:05;20.80;99.90
19044;DHT22;9654;52.302;8.120;2023-05-07T14:58:34;21.00;99.90
19044;DHT22;9654;52.302;8.120;2023-05-07T15:01:01;21.00;99.90
19044;DHT22;9654;52.302;8.120;2023-05-07T15:03:28;20.90;99.90
19044;DHT22;9654;52.302;8.120;2023-05-07T15:05:55;20.70;99.90
19044;DHT22;9654;52.302;8.120;2023-05-07T15:08:21;20.10;99.90
19044;DHT22;9654;52.302;8.120;2023-05-07T15:10:48;19.60;99.90
19044;DHT22;9654;52.302;8.120;2023-05-07T15:13:15;19.40;99.90
19044;DHT22;9654;52.302;8.120;2023-05-07T15:15:44;19.20;99.90
19044;DHT22;9654;52.302;8.120;2023-05-07T15:18:11;19.10;99.90
19044;DHT22;9654;52.302;8.120;2023-05-07T15:20:38;19.10;99.90
19044;DHT22;9654;52.302;8.120;2023-05-07T15:23:05;19.20;99.90
19044;DHT22;9654;52.302;8.120;2023-05-07T15:25:35;19.10;99.90
19044;DHT22;9654;52.302;8.120;2023-05-07T15:28:02;18.90;99.90
19044;DHT22;9654;52.302;8.120;2023-05-07T15:30:29;18.90;99.90
19044;DHT22;9654;52.302;8.120;2023-05-07T15:32:57;18.90;99.90
19044;DHT22;9654;52.302;8.120;2023-05-07T15:35:24;18.90;99.90
19044;DHT22;9654;52.302;8.120;2023-05-07T15:37:51;19.00;99.90
19044;DHT22;9654;52.302;8.120;2023-05-07T15:40:18;19.10;99.90
19044;DHT22;9654;52.302;8.120;2023-05-07T15:42:46;19.00;99.90
19044;DHT22;9654;52.302;8.120;2023-05-07T15:45:13;19.00;99.90
19044;DHT22;9654;52.302;8.120;2023-05-07T15:47:40;19.00;99.90
19044;DHT22;9654;52.302;8.120;2023-05-07T15:50:09;19.00;99.90
19044;DHT22;9654;52.302;8.120;2023-05-07T15:52:36;18.90;99.90
19044;DHT22;9654;52.302;8.120;2023-05-07T15:55:04;18.90;99.90